Time;durP1;ratioP1;P1;durP2;ratioP2;P2;SDS_P1;SDS_P2;PMS_P1;PMS_P2;Temp;Humidity;BMP_temperature;BMP_pressure;BME280_temperature;BME280_humidity;BME280_pressure;Samples;Min_cycle;Max_cycle;Signal;HPM_P1;HPM_P2
2022/06/16 00:02:14;;;;;;;;;5.50;5.50;;;;;18.10;47.26;102003.28;5010804;28;8897;-66
2022/06/16 00:04:46;;;;;;;;;3.25;3.25;;;;;18.02;47.59;102004.38;5010778;28;8831;-66
2022/06/16 00:07:16;;;;;;;;;2.75;2.75;;;;;18.01;47.59;102000.81;5011000;28;8854;-67
2022/06/16 00:09:42;;;;;;;;;6.00;6.00;;;;;18.01;47.20;102003.53;5011012;28;8808;-67
2022/06/16 00:12:09;;;;;;;;;5.00;5.00;;;;;18.02;47.78;101999.75;5009284;28;8922;-67
2022/06/16 00:14:36;;;;;;;;;6.00;3.25;;;;;18.04;47.85;102002.28;5004278;28;8822;-67
2022/06/16 00:17:03;;;;;;;;;3.75;3.75;;;;;18.11;47.58;102007.69;4991246;28;8832;-67
2022/06/16 00:19:29;;;;;;;;;3.00;3.00;;;;;18.10;47.66;102006.84;4997563;28;8966;-67
2022/06/16 00:21:56;;;;;;;;;4.67;3.67;;;;;18.12;47.20;102012.94;5010948;28;8827;-65
2022/06/16 00:24:26;;;;;;;;;4.00;4.00;;;;;18.08;47.11;102013.59;5009674;28;8986;-66
2022/06/16 00:26:55;;;;;;;;;5.50;4.50;;;;;18.03;47.19;102014.22;5009277;28;8830;-66
2022/06/16 00:29:24;;;;;;;;;5.67;5.67;;;;;17.85;47.31;102011.34;4980887;28;8837;-68
2022/06/16 00:31:50;;;;;;;;;8.33;8.33;;;;;17.72;47.52;102006.75;4991058;28;8915;-67
2022/06/16 00:34:17;;;;;;;;;6.00;4.33;;;;;17.65;47.92;102017.63;4995785;28;8906;-68
2022/06/16 00:36:43;;;;;;;;;3.00;3.00;;;;;17.52;47.53;102010.34;4991780;28;8992;-68
2022/06/16 00:39:10;;;;;;;;;6.33;6.33;;;;;17.52;48.33;102004.06;5007336;28;8904;-67
2022/06/16 00:41:36;;;;;;;;;4.50;4.50;;;;;17.62;47.80;102011.78;4991053;28;9628;-68
2022/06/16 00:44:16;;;;;;;;;5.33;5.33;;;;;17.66;47.64;102007.56;4977005;28;9621;-68
2022/06/16 00:46:43;;;;;;;;;3.67;3.33;;;;;17.70;47.76;102011.56;5010295;28;9182;-68
2022/06/16 00:49:12;;;;;;;;;3.00;3.00;;;;;17.69;47.96;102013.44;4992447;28;9081;-68
2022/06/16 00:51:46;;;;;;;;;3.00;3.00;;;;;17.73;48.03;102024.75;4991018;28;8930;-68
2022/06/16 00:54:23;;;;;;;;;6.00;6.00;;;;;17.81;48.09;102031.88;5009043;28;9012;-67
2022/06/16 00:56:51;;;;;;;;;2.25;2.25;;;;;17.82;47.19;102019.94;5016756;28;8992;-68
2022/06/16 00:59:21;;;;;;;;;3.00;3.00;;;;;17.78;47.74;102017.66;5012252;28;8849;-67
2022/06/16 01:01:48;;;;;;;;;2.33;2.33;;;;;17.74;47.51;102020.97;4997444;28;8822;-68
2022/06/16 01:07:06;;;;;;;;;5.67;5.67;;;;;17.67;47.23;102026.44;5006513;28;8991;-67
2022/06/16 01:09:36;;;;;;;;;8.00;6.67;;;;;17.61;47.33;102024.56;4992179;28;9428;-67
2022/06/16 01:15:06;;;;;;;;;3.33;3.33;;;;;17.67;47.07;102036.50;4991363;28;9087;-68
2022/06/16 01:17:54;;;;;;;;;6.00;6.00;;;;;17.70;47.15;102026.03;4987718;28;8923;-68
2022/06/16 01:20:43;;;;;;;;;2.00;2.00;;;;;17.61;47.07;102027.28;4985562;28;9120;-66
2022/06/16 01:23:21;;;;;;;;;3.33;3.33;;;;;17.60;47.11;102022.91;4999231;28;8894;-67
2022/06/16 01:26:22;;;;;;;;;2.67;1.67;;;;;17.65;47.36;102033.16;4989163;28;9009;-67
2022/06/16 01:29:05;;;;;;;;;2.67;2.67;;;;;17.67;47.56;102023.72;4980468;28;8912;-67
2022/06/16 01:31:57;;;;;;;;;4.00;3.00;;;;;17.68;47.53;102022.66;4980426;28;9638;-67
2022/06/16 01:34:37;;;;;;;;;6.00;6.00;;;;;17.64;47.45;102021.41;5001959;28;8900;-67
2022/06/16 01:37:30;;;;;;;;;3.33;3.33;;;;;17.63;47.55;102017.03;4998960;28;9003;-66
2022/06/16 01:40:07;;;;;;;;;3.00;3.00;;;;;17.63;47.63;102024.38;4993809;28;9025;-66
2022/06/16 01:42:50;;;;;;;;;3.33;3.33;;;;;17.64;47.30;102026.88;4998652;28;9065;-66
2022/06/16 01:45:24;;;;;;;;;2.00;2.00;;;;;17.62;47.63;102037.13;5001492;28;8918;-65
2022/06/16 01:47:52;;;;;;;;;4.00;4.00;;;;;17.64;47.18;102037.75;4998534;28;9063;-66
2022/06/16 01:50:31;;;;;;;;;3.67;3.67;;;;;17.63;47.55;102035.25;4995512;28;9058;-66
2022/06/16 01:53:12;;;;;;;;;5.33;3.00;;;;;17.61;47.68;102040.91;4979477;28;9140;-63
2022/06/16 01:55:46;;;;;;;;;6.33;6.00;;;;;17.59;47.92;102040.28;4994978;28;9066;-66
2022/06/16 01:58:27;;;;;;;;;4.67;3.67;;;;;17.54;48.07;102035.47;4993898;28;9072;-67
2022/06/16 02:00:57;;;;;;;;;3.00;2.67;;;;;17.48;48.32;102032.75;4988179;28;8947;-66
2022/06/16 02:03:30;;;;;;;;;3.00;3.00;;;;;17.43;48.75;102038.00;4997304;28;8940;-66
2022/06/16 02:06:15;;;;;;;;;3.00;3.00;;;;;17.37;49.06;102034.22;4983156;28;8945;-66
2022/06/16 02:08:47;;;;;;;;;3.33;3.33;;;;;17.34;49.19;102033.78;4995373;28;8909;-66
2022/06/16 02:11:20;;;;;;;;;3.00;3.00;;;;;17.26;49.20;102032.97;4992834;28;9175;-65
2022/06/16 02:14:11;;;;;;;;;5.67;5.67;;;;;17.20;49.48;102031.09;4987135;28;9767;-65
2022/06/16 02:16:40;;;;;;;;;3.00;3.00;;;;;17.13;49.63;102030.25;4988706;28;9012;-66
2022/06/16 02:19:20;;;;;;;;;6.33;5.67;;;;;17.10;50.03;102021.69;4993509;28;8922;-66
2022/06/16 02:21:49;;;;;;;;;2.33;2.33;;;;;17.05;50.22;102028.59;4995197;28;9192;-67
2022/06/16 02:24:24;;;;;;;;;3.00;2.00;;;;;17.03;49.96;102030.66;5007008;28;9107;-66
2022/06/16 02:26:54;;;;;;;;;5.00;5.00;;;;;17.00;50.21;102033.78;5008074;28;9160;-67
2022/06/16 02:29:26;;;;;;;;;6.33;6.33;;;;;16.97;50.33;102042.34;4995186;28;9219;-67
2022/06/16 02:32:18;;;;;;;;;3.67;3.67;;;;;16.93;50.73;102046.53;5022441;23;9223;-64
2022/06/16 02:35:05;;;;;;;;;6.00;4.33;;;;;16.91;50.82;102064.97;5012882;28;9114;-65
2022/06/16 02:37:52;;;;;;;;;6.67;5.00;;;;;16.88;51.05;102073.53;4989802;28;9235;-64
2022/06/16 02:40:54;;;;;;;;;3.00;3.00;;;;;16.86;50.88;102067.47;5018038;28;9156;-64
2022/06/16 02:43:57;;;;;;;;;7.00;5.00;;;;;16.81;51.16;102059.06;5031233;28;9141;-65
2022/06/16 02:46:40;;;;;;;;;3.00;3.00;;;;;16.76;50.96;102064.28;4989784;28;9147;-64
2022/06/16 02:49:18;;;;;;;;;7.33;3.00;;;;;16.71;51.68;102066.75;5004895;28;9225;-65
2022/06/16 02:52:12;;;;;;;;;3.33;3.33;;;;;16.70;51.49;102068.66;4994849;28;9216;-65
2022/06/16 02:55:00;;;;;;;;;5.00;5.00;;;;;16.68;51.31;102069.88;5020644;28;9229;-64
2022/06/16 02:57:41;;;;;;;;;4.67;3.67;;;;;16.67;51.08;102079.09;4975061;28;9312;-65
2022/06/16 03:00:12;;;;;;;;;6.33;6.00;;;;;16.66;51.25;102075.53;4998392;28;9308;-65
2022/06/16 03:02:40;;;;;;;;;5.00;5.00;;;;;16.64;51.18;102072.16;5014378;28;9304;-65
2022/06/16 03:05:10;;;;;;;;;7.00;4.00;;;;;16.61;51.49;102083.47;5002707;28;9497;-65
2022/06/16 03:07:36;;;;;;;;;4.33;3.67;;;;;16.60;51.16;102081.78;4989070;28;9366;-65
2022/06/16 03:10:50;;;;;;;;;3.33;3.33;;;;;16.59;51.55;102091.00;5005686;28;9385;-65
2022/06/16 03:13:07;;;;;;;;;3.00;3.00;;;;;16.58;51.69;102081.16;5014168;28;9331;-67
2022/06/16 03:15:33;;;;;;;;;3.67;3.00;;;;;16.56;51.47;102083.22;4991710;28;9317;-68
2022/06/16 03:18:00;;;;;;;;;3.00;3.00;;;;;16.54;51.88;102072.56;4991575;28;9206;-67
2022/06/16 03:20:26;;;;;;;;;3.00;2.00;;;;;16.54;51.56;102066.31;5005106;28;9269;-67
2022/06/16 03:22:53;;;;;;;;;3.00;2.00;;;;;16.55;51.79;102065.25;5001408;28;9157;-66
2022/06/16 03:25:20;;;;;;;;;6.67;6.00;;;;;16.53;51.70;102062.75;4993308;28;9364;-66
2022/06/16 03:27:47;;;;;;;;;3.00;3.00;;;;;16.55;52.00;102074.25;5022074;28;9380;-66
2022/06/16 03:30:14;;;;;;;;;4.00;4.00;;;;;16.56;51.76;102070.47;5000267;28;9216;-66
2022/06/16 03:32:41;;;;;;;;;4.33;3.67;;;;;16.60;51.88;102076.34;5007750;28;9508;-66
2022/06/16 03:35:09;;;;;;;;;3.33;3.33;;;;;16.62;51.61;102073.44;5002480;28;9301;-66
2022/06/16 03:37:37;;;;;;;;;3.67;3.67;;;;;16.64;51.74;102077.59;4994162;28;9224;-65
2022/06/16 03:40:07;;;;;;;;;6.00;5.67;;;;;16.64;51.54;102072.16;4981101;28;9257;-65
2022/06/16 03:42:35;;;;;;;;;9.00;6.33;;;;;16.66;51.32;102074.72;4999395;28;9355;-66
2022/06/16 03:45:01;;;;;;;;;4.00;4.00;;;;;16.66;51.39;102078.25;5014003;28;9233;-66
2022/06/16 03:47:29;;;;;;;;;5.67;4.33;;;;;16.67;51.51;102070.94;5029702;28;9162;-67
2022/06/16 03:49:55;;;;;;;;;3.00;3.00;;;;;16.64;51.67;102077.59;5022017;28;9330;-66
2022/06/16 03:52:22;;;;;;;;;3.67;3.67;;;;;16.63;51.77;102084.09;4997653;28;9242;-66
2022/06/16 03:54:53;;;;;;;;;6.00;5.00;;;;;16.63;52.09;102097.69;5002868;28;10068;-67
2022/06/16 03:57:20;;;;;;;;;6.00;6.00;;;;;16.63;52.14;102100.41;4991261;28;9149;-66
2022/06/16 03:59:46;;;;;;;;;3.67;3.67;;;;;16.62;52.38;102097.91;4982556;28;9086;-66
2022/06/16 04:02:22;;;;;;;;;5.00;4.67;;;;;16.59;52.21;102096.41;4993298;28;9162;-66
2022/06/16 04:04:49;;;;;;;;;3.00;3.00;;;;;16.62;52.44;102109.63;5001786;28;9156;-67
2022/06/16 04:07:16;;;;;;;;;3.33;3.33;;;;;16.61;52.18;102110.66;4988429;28;9236;-66
2022/06/16 04:10:06;;;;;;;;;5.00;5.00;;;;;16.62;52.39;102130.53;5025550;28;9149;-66
2022/06/16 04:12:34;;;;;;;;;3.00;2.33;;;;;16.60;52.43;102125.28;5012865;28;9227;-66
2022/06/16 04:15:02;;;;;;;;;4.67;4.00;;;;;16.58;52.71;102131.97;5001185;28;9247;-66
2022/06/16 04:17:29;;;;;;;;;4.00;4.00;;;;;16.59;53.20;102147.25;4992779;28;9134;-66
2022/06/16 04:20:11;;;;;;;;;5.67;5.67;;;;;16.55;53.09;102138.66;4987059;28;9092;-66
2022/06/16 04:22:55;;;;;;;;;6.00;6.00;;;;;16.54;53.61;102135.09;5006346;28;9444;-66
2022/06/16 04:25:30;;;;;;;;;4.00;4.00;;;;;16.52;53.87;102142.59;4997603;28;9299;-66
2022/06/16 04:28:14;;;;;;;;;3.00;3.00;;;;;16.51;54.01;102140.94;4973539;28;9244;-66
2022/06/16 04:30:53;;;;;;;;;3.67;3.67;;;;;16.51;54.15;102148.25;4988841;28;9206;-67
2022/06/16 04:33:24;;;;;;;;;4.67;4.00;;;;;16.52;54.19;102155.34;4973311;28;9242;-66
2022/06/16 04:35:54;;;;;;;;;3.67;3.67;;;;;16.55;54.14;102165.84;5007887;28;9223;-66
2022/06/16 04:38:26;;;;;;;;;5.00;4.67;;;;;16.61;54.08;102169.59;5012289;28;9169;-66
2022/06/16 04:40:55;;;;;;;;;2.33;2.33;;;;;16.63;54.14;102168.38;4994386;28;9366;-66
2022/06/16 04:43:21;;;;;;;;;2.67;2.67;;;;;16.67;54.40;102171.53;5017687;28;9284;-67
2022/06/16 04:45:53;;;;;;;;;5.00;5.00;;;;;16.71;54.23;102170.91;5004029;28;9071;-66
2022/06/16 04:48:23;;;;;;;;;4.00;3.00;;;;;16.74;54.71;102169.72;4957609;28;9325;-67
2022/06/16 04:50:50;;;;;;;;;7.00;6.00;;;;;16.76;54.83;102175.78;5007511;28;9133;-65
2022/06/16 04:53:19;;;;;;;;;3.00;3.00;;;;;16.77;55.01;102178.31;5012037;28;9150;-65
2022/06/16 04:56:02;;;;;;;;;4.33;4.33;;;;;16.79;54.08;102181.66;4979198;28;9729;-66
2022/06/16 04:59:03;;;;;;;;;4.67;3.67;;;;;16.84;53.70;102178.31;4949820;28;8993;-65
2022/06/16 05:01:37;;;;;;;;;5.00;3.00;;;;;16.89;53.63;102186.72;4992147;28;9208;-66
2022/06/16 05:04:09;;;;;;;;;3.00;3.00;;;;;16.92;53.32;102185.47;5019762;28;9001;-66
2022/06/16 05:06:44;;;;;;;;;2.00;2.00;;;;;16.94;52.78;102191.56;5013591;28;8944;-66
2022/06/16 05:09:20;;;;;;;;;3.33;3.33;;;;;16.98;52.60;102187.41;5025020;28;8977;-65
2022/06/16 05:11:55;;;;;;;;;2.00;2.00;;;;;17.00;52.17;102188.00;5010143;28;9008;-67
2022/06/16 05:14:28;;;;;;;;;2.00;2.00;;;;;17.04;52.28;102192.84;5011461;28;8995;-66
2022/06/16 05:17:05;;;;;;;;;5.00;3.67;;;;;17.10;52.59;102195.81;5020365;28;9020;-67
2022/06/16 05:19:50;;;;;;;;;5.00;3.00;;;;;17.12;52.79;102202.69;5015010;28;9066;-67
2022/06/16 05:22:40;;;;;;;;;1.00;1.00;;;;;17.11;51.69;102206.47;4984288;28;8910;-67
2022/06/16 05:25:12;;;;;;;;;1.00;1.00;;;;;17.14;51.22;102206.06;5024250;28;8952;-66
2022/06/16 05:27:58;;;;;;;;;3.00;3.00;;;;;17.21;50.70;102212.34;5013486;28;8865;-67
2022/06/16 05:30:39;;;;;;;;;2.00;2.00;;;;;17.27;50.50;102216.16;5026626;28;9225;-67
2022/06/16 05:33:20;;;;;;;;;2.00;2.00;;;;;17.43;50.07;102214.94;5013965;28;9124;-67
2022/06/16 05:36:13;;;;;;;;;1.25;1.25;;;;;17.69;49.08;102225.84;5003072;28;8934;-66
2022/06/16 05:39:06;;;;;;;;;1.75;1.00;;;;;18.00;47.62;102238.91;4981182;28;9546;-66
2022/06/16 05:41:51;;;;;;;;;3.00;2.00;;;;;18.27;47.45;102241.59;5011450;28;8855;-65
2022/06/16 05:44:50;;;;;;;;;3.00;3.00;;;;;18.48;46.42;102224.19;5012457;28;8911;-66
2022/06/16 05:47:37;;;;;;;;;2.00;2.00;;;;;18.55;45.75;102233.19;5014378;28;8847;-66
2022/06/16 05:50:05;;;;;;;;;1.00;1.00;;;;;18.64;45.83;102225.63;4987922;28;8857;-66
2022/06/16 05:52:33;;;;;;;;;2.00;1.75;;;;;18.67;45.10;102241.53;4987897;28;9147;-66
2022/06/16 05:55:05;;;;;;;;;2.00;2.00;;;;;18.70;45.07;102231.06;4990686;28;8871;-66
2022/06/16 05:57:32;;;;;;;;;2.75;2.00;;;;;18.76;45.43;102232.13;4989143;28;8839;-67
2022/06/16 05:59:59;;;;;;;;;2.25;1.75;;;;;18.76;45.02;102238.41;4997623;28;8854;-66
2022/06/16 06:02:26;;;;;;;;;0.75;0.75;;;;;18.82;45.28;102235.88;4997926;28;8856;-66
2022/06/16 06:04:57;;;;;;;;;1.00;1.00;;;;;18.85;45.54;102235.44;5012446;28;8840;-66
2022/06/16 06:07:24;;;;;;;;;2.00;1.00;;;;;18.86;44.48;102237.13;5012804;28;8871;-66
2022/06/16 06:18:09;;;;;;;;;3.00;1.75;;;;;18.65;42.14;102236.31;5032993;28;8862;-66
2022/06/16 06:20:36;;;;;;;;;1.50;1.50;;;;;18.57;42.05;102247.44;5018927;28;8861;-65
2022/06/16 06:23:03;;;;;;;;;1.00;1.00;;;;;18.54;41.94;102235.06;5001344;28;8822;-66
2022/06/16 06:25:29;;;;;;;;;1.00;1.00;;;;;18.48;41.77;102235.09;4995457;28;9540;-66
2022/06/16 06:27:56;;;;;;;;;1.00;1.00;;;;;18.48;42.14;102230.47;4989878;28;8856;-65
2022/06/16 06:30:29;;;;;;;;;2.25;0.00;;;;;18.45;41.70;102230.91;5005910;28;8820;-66
2022/06/16 06:33:00;;;;;;;;;1.50;1.50;;;;;18.45;41.85;102224.59;5011657;28;8824;-66
2022/06/16 06:35:27;;;;;;;;;1.00;1.00;;;;;18.47;42.12;102222.50;4992856;28;8831;-66
2022/06/16 06:37:56;;;;;;;;;1.00;1.00;;;;;18.47;41.39;102219.78;4999663;28;8900;-66
2022/06/16 06:40:26;;;;;;;;;1.00;0.00;;;;;18.41;42.08;102223.34;4998632;28;8839;-64
2022/06/16 06:42:52;;;;;;;;;1.00;1.00;;;;;18.41;41.75;102223.34;5006005;28;8910;-66
2022/06/16 06:45:20;;;;;;;;;1.00;1.00;;;;;18.38;41.84;102221.88;5012753;28;8821;-66
2022/06/16 06:47:47;;;;;;;;;1.00;1.00;;;;;18.37;41.37;102219.38;5017443;28;8835;-66
2022/06/16 06:50:36;;;;;;;;;1.25;0.75;;;;;18.41;41.72;102215.19;5017854;28;8832;-66
2022/06/16 06:53:02;;;;;;;;;1.25;1.25;;;;;18.42;42.18;102219.56;5005253;28;8830;-67
2022/06/16 06:55:29;;;;;;;;;2.00;1.75;;;;;18.39;41.13;102226.31;5010632;28;8822;-66
2022/06/16 06:57:57;;;;;;;;;1.00;1.00;;;;;18.31;41.86;102223.81;5004555;28;9619;-65
2022/06/16 07:00:32;;;;;;;;;1.00;1.00;;;;;18.32;41.96;102230.09;5006352;28;8846;-65
2022/06/16 07:02:59;;;;;;;;;1.75;1.75;;;;;18.33;42.00;102235.31;4999161;28;8854;-65
2022/06/16 07:05:26;;;;;;;;;2.00;2.00;;;;;18.30;40.88;102230.28;5006713;28;8831;-66
2022/06/16 07:07:56;;;;;;;;;2.00;2.00;;;;;18.32;40.92;102238.28;5016880;28;8833;-64
2022/06/16 07:10:23;;;;;;;;;1.50;1.50;;;;;18.37;40.88;102235.75;4996311;28;9657;-65
2022/06/16 07:12:49;;;;;;;;;3.25;2.00;;;;;18.40;41.23;102244.34;5013895;28;8819;-66
2022/06/16 07:15:17;;;;;;;;;2.00;2.00;;;;;18.39;40.82;102248.13;5018864;28;8876;-66
2022/06/16 07:17:46;;;;;;;;;4.25;2.00;;;;;18.43;40.39;102245.78;4998574;28;8844;-67
2022/06/16 07:20:15;;;;;;;;;2.25;2.25;;;;;18.42;40.20;102250.41;4987196;28;8851;-67
2022/06/16 07:22:44;;;;;;;;;1.25;1.25;;;;;18.39;40.44;102244.53;5020093;28;8833;-66
2022/06/16 07:25:15;;;;;;;;;1.50;1.00;;;;;18.39;41.03;102253.56;5021137;28;8944;-67
2022/06/16 07:27:42;;;;;;;;;1.00;1.00;;;;;18.41;40.82;102256.09;5013602;28;8985;-66
2022/06/16 07:30:14;;;;;;;;;1.00;0.50;;;;;18.44;41.44;102251.03;5011232;28;8933;-66
2022/06/16 07:32:42;;;;;;;;;1.50;1.50;;;;;18.50;41.69;102249.34;5016410;28;8825;-67
2022/06/16 07:35:10;;;;;;;;;2.00;1.00;;;;;18.60;42.25;102255.22;4995674;28;8834;-66
2022/06/16 07:37:36;;;;;;;;;1.00;1.00;;;;;18.66;41.71;102262.53;5013312;28;8831;-65
2022/06/16 07:40:04;;;;;;;;;2.00;2.00;;;;;18.68;41.78;102270.50;5022465;28;8825;-67
2022/06/16 07:42:31;;;;;;;;;3.25;3.00;;;;;18.62;40.51;102274.09;5013354;28;8836;-64
2022/06/16 07:44:57;;;;;;;;;1.25;1.25;;;;;18.59;41.65;102269.88;5025680;28;8870;-66
2022/06/16 07:47:24;;;;;;;;;2.00;2.00;;;;;18.62;41.81;102277.63;5025770;28;8871;-66
2022/06/16 07:49:50;;;;;;;;;1.00;1.00;;;;;18.68;42.19;102279.53;5017227;28;8903;-66
2022/06/16 07:52:17;;;;;;;;;0.75;0.75;;;;;18.70;41.63;102277.44;5019554;28;8826;-66
2022/06/16 07:54:44;;;;;;;;;1.25;1.25;;;;;18.73;41.42;102287.09;5010810;28;8926;-67
2022/06/16 07:57:21;;;;;;;;;2.50;2.50;;;;;18.82;41.97;102295.91;5012643;28;8912;-66
2022/06/16 07:59:55;;;;;;;;;2.50;2.50;;;;;18.84;41.58;102291.03;4993766;28;8916;-65
2022/06/16 08:02:22;;;;;;;;;2.75;2.75;;;;;18.86;41.59;102306.16;5010116;28;8844;-67
2022/06/16 08:04:49;;;;;;;;;1.00;1.00;;;;;18.92;41.95;102290.81;5020020;28;8829;-65
2022/06/16 08:07:16;;;;;;;;;2.00;2.00;;;;;18.95;41.51;102288.50;5018037;28;8817;-67
2022/06/16 08:09:43;;;;;;;;;2.50;2.00;;;;;18.97;41.40;102274.66;5014927;28;8823;-66
2022/06/16 08:12:11;;;;;;;;;1.00;1.00;;;;;19.00;41.61;102276.97;5022355;28;8832;-65
2022/06/16 08:14:42;;;;;;;;;1.25;1.25;;;;;19.01;41.14;102271.28;4997688;28;9492;-66
2022/06/16 08:17:12;;;;;;;;;2.75;2.00;;;;;19.02;40.94;102278.41;5019435;28;8840;-66
2022/06/16 08:19:39;;;;;;;;;3.00;2.50;;;;;19.03;40.04;102281.97;5002224;28;8954;-65
2022/06/16 08:22:07;;;;;;;;;5.50;3.75;;;;;19.01;40.13;102292.28;5022174;28;9548;-66
2022/06/16 08:24:34;;;;;;;;;2.00;2.00;;;;;19.10;39.96;102287.41;5023780;28;8832;-67
2022/06/16 08:27:02;;;;;;;;;1.50;1.50;;;;;19.16;39.07;102287.41;5022535;28;8910;-67
2022/06/16 08:29:29;;;;;;;;;1.50;1.50;;;;;19.25;39.28;102285.25;5002530;28;8869;-67
2022/06/16 08:31:57;;;;;;;;;8.00;7.25;;;;;19.33;39.84;102287.75;5016534;28;8849;-67
2022/06/16 08:34:23;;;;;;;;;5.25;4.75;;;;;19.37;40.50;102282.69;5017613;28;8836;-67
2022/06/16 08:36:51;;;;;;;;;2.00;2.00;;;;;19.42;40.77;102289.16;5022868;28;8864;-65
2022/06/16 08:39:18;;;;;;;;;2.00;2.00;;;;;19.45;40.20;102288.72;5019463;28;8899;-64
2022/06/16 08:41:55;;;;;;;;;2.25;2.25;;;;;19.49;39.90;102298.16;4999625;28;8820;-66
2022/06/16 08:44:38;;;;;;;;;2.50;2.00;;;;;19.52;40.15;102292.25;5016677;28;8817;-63
2022/06/16 08:47:20;;;;;;;;;1.75;1.25;;;;;19.59;40.25;102300.41;5001682;28;8809;-66
2022/06/16 08:49:56;;;;;;;;;0.00;0.00;;;;;19.62;39.23;102308.22;5015862;28;8868;-65
2022/06/16 08:52:36;;;;;;;;;2.50;2.50;;;;;19.59;39.49;102305.03;5010764;28;8835;-65
2022/06/16 08:55:26;;;;;;;;;2.75;2.75;;;;;19.64;39.47;102306.06;5018229;28;8844;-65
2022/06/16 08:58:07;;;;;;;;;3.00;1.00;;;;;19.72;39.87;102311.28;5011167;28;9516;-65
2022/06/16 09:00:44;;;;;;;;;2.00;2.00;;;;;19.84;39.66;102305.97;5011459;28;8840;-63
2022/06/16 09:03:26;;;;;;;;;2.50;2.25;;;;;19.89;39.63;102297.09;5013574;28;8829;-64
2022/06/16 09:05:59;;;;;;;;;4.50;4.00;;;;;19.95;39.20;102299.78;5013219;28;8830;-65
2022/06/16 09:08:44;;;;;;;;;1.75;1.75;;;;;20.03;39.55;102306.06;5014458;28;8871;-64
2022/06/16 09:11:22;;;;;;;;;6.00;2.25;;;;;20.15;38.87;102305.13;5018199;28;8829;-64
2022/06/16 09:15:10;;;;;;;;;3.00;3.00;;;;;20.24;38.87;102302.94;5010852;28;8863;-65
2022/06/16 09:17:40;;;;;;;;;3.00;3.00;;;;;20.32;38.61;102304.56;4983153;28;8825;-65
2022/06/16 09:20:15;;;;;;;;;3.25;3.25;;;;;20.39;38.92;102308.06;5025816;28;8841;-65
2022/06/16 09:23:01;;;;;;;;;3.75;3.75;;;;;20.44;38.95;102309.06;5035835;28;8844;-66
2022/06/16 09:25:51;;;;;;;;;2.25;2.00;;;;;20.50;39.03;102315.59;5019890;28;8907;-66
2022/06/16 09:28:51;;;;;;;;;2.75;2.75;;;;;20.59;39.47;102316.13;5014282;28;8844;-66
2022/06/16 09:32:08;;;;;;;;;7.25;5.50;;;;;20.65;39.01;102321.53;5014068;28;8906;-66
2022/06/16 09:34:49;;;;;;;;;4.25;4.25;;;;;20.74;39.19;102317.47;4964148;28;8851;-66
2022/06/16 09:37:25;;;;;;;;;4.00;4.00;;;;;20.82;39.41;102313.56;5013807;28;8844;-66
2022/06/16 09:40:13;;;;;;;;;3.25;3.25;;;;;20.89;39.45;102318.97;5022969;28;8830;-65
2022/06/16 09:42:53;;;;;;;;;4.00;3.00;;;;;20.96;39.41;102317.84;5016505;28;8813;-66
2022/06/16 09:45:39;;;;;;;;;4.00;4.00;;;;;21.02;39.55;102329.78;5020577;28;8820;-66
2022/06/16 09:48:19;;;;;;;;;4.50;3.00;;;;;21.06;40.00;102328.25;5013932;28;9591;-65
2022/06/16 09:51:03;;;;;;;;;2.25;2.00;;;;;21.12;39.11;102313.66;5030714;28;8829;-65
2022/06/16 09:53:58;;;;;;;;;6.25;6.25;;;;;21.16;39.32;102314.88;5034161;28;8825;-65
2022/06/16 09:56:52;;;;;;;;;3.25;3.25;;;;;21.19;39.57;102325.38;4977254;28;8853;-65
2022/06/16 09:59:24;;;;;;;;;3.25;3.25;;;;;21.24;39.26;102344.69;5003588;28;8844;-66
2022/06/16 10:02:06;;;;;;;;;4.00;4.00;;;;;21.26;39.00;102338.13;5033593;28;8829;-66
2022/06/16 10:04:33;;;;;;;;;3.00;3.00;;;;;21.23;39.10;102347.66;5026439;28;9565;-65
2022/06/16 10:07:31;;;;;;;;;2.25;2.25;;;;;21.27;39.77;102348.88;5013548;28;8825;-65
2022/06/16 10:10:09;;;;;;;;;2.00;2.00;;;;;21.32;39.85;102345.44;5023818;28;8865;-66
2022/06/16 10:12:42;;;;;;;;;4.00;4.00;;;;;21.40;39.33;102342.44;5033460;28;8821;-65
2022/06/16 10:15:35;;;;;;;;;3.00;3.00;;;;;21.43;39.39;102334.59;5021632;28;8828;-64
2022/06/16 10:18:03;;;;;;;;;3.50;3.50;;;;;21.45;39.43;102326.13;5013361;28;8809;-64
2022/06/16 10:20:31;;;;;;;;;2.75;2.50;;;;;21.53;39.75;102320.34;5027775;28;8919;-64
2022/06/16 10:23:11;;;;;;;;;3.00;3.00;;;;;21.57;39.76;102321.53;5033106;28;8941;-65
2022/06/16 10:25:49;;;;;;;;;4.00;4.00;;;;;21.58;39.44;102334.16;5017463;28;8802;-65
2022/06/16 10:28:28;;;;;;;;;4.00;3.00;;;;;21.60;39.42;102325.75;5012022;28;8821;-65
2022/06/16 10:30:58;;;;;;;;;4.50;4.50;;;;;21.70;39.40;102328.75;5030975;28;9555;-65
2022/06/16 10:33:28;;;;;;;;;3.50;3.50;;;;;21.80;39.92;102326.28;5032604;28;8834;-64
2022/06/16 10:35:59;;;;;;;;;3.50;3.50;;;;;21.88;38.73;102331.44;5014568;28;8908;-65
2022/06/16 10:38:29;;;;;;;;;4.00;4.00;;;;;21.89;38.06;102335.00;5011900;28;9542;-65
2022/06/16 10:40:56;;;;;;;;;3.00;3.00;;;;;21.82;37.66;102346.06;5030854;28;8848;-65
2022/06/16 10:43:40;;;;;;;;;4.00;3.00;;;;;21.76;37.81;102343.44;5014367;28;8833;-65
2022/06/16 10:46:10;;;;;;;;;4.75;3.25;;;;;21.72;39.37;102340.31;5032121;28;8849;-65
2022/06/16 10:48:40;;;;;;;;;2.50;2.50;;;;;21.80;39.24;102344.66;5032474;28;8853;-65
2022/06/16 10:51:14;;;;;;;;;3.00;3.00;;;;;21.92;37.54;102346.34;5031771;28;8841;-64
2022/06/16 10:54:13;;;;;;;;;3.50;3.50;;;;;21.93;38.23;102350.75;5032056;28;8829;-65
2022/06/16 10:56:43;;;;;;;;;3.50;3.50;;;;;21.93;38.81;102347.19;4993124;28;8939;-65
2022/06/16 10:59:23;;;;;;;;;4.25;4.25;;;;;22.01;38.67;102355.09;4996838;28;8937;-65
2022/06/16 11:02:01;;;;;;;;;3.50;3.50;;;;;22.03;38.25;102361.16;5011890;28;8808;-64
2022/06/16 11:04:36;;;;;;;;;3.00;3.00;;;;;22.07;37.31;102359.63;5012170;28;8789;-65
2022/06/16 11:07:03;;;;;;;;;2.00;2.00;;;;;22.12;37.28;102357.03;5012783;28;9543;-65
2022/06/16 11:09:33;;;;;;;;;2.25;2.25;;;;;22.16;36.43;102361.00;5017224;28;8856;-66
2022/06/16 11:12:04;;;;;;;;;3.00;3.00;;;;;22.12;36.94;102361.66;5027169;28;8829;-65
2022/06/16 11:14:39;;;;;;;;;4.00;3.75;;;;;22.16;36.19;102358.25;5025403;28;9011;-66
2022/06/16 11:17:11;;;;;;;;;2.25;1.75;;;;;22.23;36.30;102351.81;5013734;28;9596;-64
2022/06/16 11:19:44;;;;;;;;;2.50;2.50;;;;;22.27;36.03;102351.09;5016969;28;8902;-66
2022/06/16 11:22:34;;;;;;;;;3.00;3.00;;;;;22.37;36.96;102356.03;5005781;28;8863;-66
2022/06/16 11:25:21;;;;;;;;;5.25;3.75;;;;;22.44;35.82;102352.09;5003300;28;8848;-66
2022/06/16 11:27:54;;;;;;;;;4.00;4.00;;;;;22.40;35.82;102353.66;5016202;28;8836;-66
2022/06/16 11:30:47;;;;;;;;;4.00;4.00;;;;;22.38;35.98;102360.44;5015216;28;8828;-66
2022/06/16 11:36:39;;;;;;;;;3.00;3.00;;;;;22.27;36.35;102350.28;4997754;28;8839;-67
2022/06/16 11:39:32;;;;;;;;;2.75;2.75;;;;;22.28;36.56;102352.81;5019951;28;8827;-65
2022/06/16 11:41:59;;;;;;;;;2.50;2.50;;;;;22.35;36.18;102352.69;4995273;28;8942;-65
2022/06/16 11:44:44;;;;;;;;;2.00;2.00;;;;;22.31;36.12;102354.22;5015281;28;8835;-65
2022/06/16 11:47:50;;;;;;;;;4.00;3.00;;;;;22.27;35.64;102351.09;4984928;28;8930;-65
2022/06/16 11:50:49;;;;;;;;;2.00;2.00;;;;;22.29;35.22;102356.38;5008867;28;8888;-65
2022/06/16 11:53:34;;;;;;;;;1.50;1.50;;;;;22.28;35.90;102360.16;5011973;28;8920;-65
2022/06/16 11:56:33;;;;;;;;;4.00;2.75;;;;;22.40;35.42;102359.16;5019294;28;8819;-65
2022/06/16 11:59:24;;;;;;;;;2.75;2.00;;;;;22.41;35.03;102368.22;5009671;28;8855;-64
2022/06/16 12:01:57;;;;;;;;;3.75;3.75;;;;;22.42;35.03;102373.44;5009899;28;8836;-66
2022/06/16 12:04:58;;;;;;;;;5.00;5.00;;;;;22.40;35.39;102367.38;5001377;28;8931;-65
2022/06/16 12:07:41;;;;;;;;;3.00;3.00;;;;;22.46;36.87;102373.81;4999497;28;8878;-65
2022/06/16 12:10:33;;;;;;;;;3.50;3.00;;;;;22.51;36.49;102371.19;5009416;28;8858;-65
2022/06/16 12:13:05;;;;;;;;;4.50;4.50;;;;;22.48;36.25;102370.81;4983391;28;8849;-66
2022/06/16 12:16:05;;;;;;;;;4.00;4.00;;;;;22.51;36.48;102384.09;5009056;28;8875;-65
2022/06/16 12:18:45;;;;;;;;;2.25;2.25;;;;;22.61;36.94;102376.94;5004184;28;8884;-66
2022/06/16 12:21:42;;;;;;;;;3.00;3.00;;;;;22.76;36.42;102381.94;5003773;28;8945;-65
2022/06/16 12:24:33;;;;;;;;;3.75;3.75;;;;;22.79;35.98;102373.22;5004212;28;8859;-65
2022/06/16 12:27:06;;;;;;;;;7.75;5.00;;;;;22.79;36.06;102370.50;5005073;28;8831;-66
2022/06/16 12:29:33;;;;;;;;;4.25;3.00;;;;;22.83;36.38;102373.59;4979570;28;8841;-65
2022/06/16 12:32:21;;;;;;;;;3.75;3.75;;;;;22.89;35.51;102372.66;5009368;28;9565;-66